M I D A S
Marine Information and Data Acquisition System
Tripno 374 of the Zeeleeuw from 2002-12-23 07:53:17 to 2002-12-23 15:56:21
Back to CruiseResearch ActivitiesStationsMapUnderway DataData graphs

EquipmentUnitsComment
TimeDGPSUTC
LatitudeDGPSDM.mWGS84
LongitudeDGPSDM.mWGS84
TemperatureSBE03/SBE38deg celciusITS90
ConductivitySBE21S/mITS90
SalinitySBE21 Practical Salinity Units
ChlorophylAChelsea fluorimeterg/lCalibrated in Aceton
Missing or incorrect values are displayed as -999
Sea surface data collected by the RV Zeeleeuw from 2002-12-23 07:53:17 to 2002-12-23 15:56:21
Time Latitude Longitude Temperature Conductivity Salinity ChlorophylA
2002-12-23 07:54:18 51°13.633 2°55.999 -999 0.009778 0.05461  
2002-12-23 07:55:18 51°13.665 2°55.843 -999 0.009778 0.05461  
2002-12-23 07:56:18 51°13.674 2°55.77 -999 0.009778 0.05461  
2002-12-23 07:57:18 51°13.707 2°55.755 -999 0.009778 0.05461  
2002-12-23 07:58:18 51°13.793 2°55.667 -999 0.009778 0.05461  
2002-12-23 07:59:18 51°13.915 2°55.571 9.636264 0.009778 0.054716  
2002-12-23 08:00:18 51°14.049 2°55.473 7.111843 1.787296 16.70834  
2002-12-23 08:01:18 51°14.216 2°55.322 6.988366 1.881338 17.968166  
2002-12-23 08:02:18 51°14.358 2°55.074 7.042892 1.478726 13.836176  
2002-12-23 08:03:18 51°14.532 2°54.84 6.714489 1.717838 16.364384  
2002-12-23 08:04:18 51°14.743 2°54.751 6.502103 2.834414 28.411189  
2002-12-23 08:05:18 51°14.95 2°54.678 6.40224 3.062274 31.046175  
2002-12-23 08:06:18 51°15.152 2°54.626 6.696077 3.076276 31.247442  
2002-12-23 08:07:18 51°15.35 2°54.61 6.119893 3.098068 31.493957  
2002-12-23 08:08:18 51°15.556 2°54.532 6.058086 3.084171 31.349894  
2002-12-23 08:09:18 51°15.764 2°54.455 6.589991 3.078908 31.344149  
2002-12-23 08:10:18 51°15.963 2°54.47 6.183282 3.071013 31.270652  
2002-12-23 08:11:18 51°16.121 2°54.485 6.441064 3.0947 31.538304  
2002-12-23 08:12:18 51°16.194 2°54.418 6.327253 3.100911 31.609147  
2002-12-23 08:13:18 51°16.21 2°54.309 6.417961 3.091331 31.493813  
2002-12-23 08:14:18 51°16.225 2°54.267 6.018678 3.087014 31.437861  
2002-12-23 08:15:18 51°16.264 2°54.258 6.544627 3.105017 31.632522  
2002-12-23 08:16:18 51°16.267 2°54.24 6.471096 3.103227 31.623804  
2002-12-23 08:17:18 51°16.271 2°54.234 6.409134 3.108596 31.681878  
2002-12-23 08:18:19 51°16.271 2°54.23 6.545963 3.107859 31.677667  
2002-12-23 08:19:18 51°16.268 2°54.225 6.417416 3.104701 31.652705  
2002-12-23 08:20:18 51°16.264 2°54.222 6.493337 3.102911 31.63334  
2002-12-23 08:21:18 51°16.258 2°54.221 6.33202 3.103122 31.640629  
2002-12-23 08:22:18 51°16.251 2°54.221 6.205127 3.098279 31.588466  
2002-12-23 08:23:18 51°16.244 2°54.219 6.205625 3.103543 31.649476  
2002-12-23 08:24:18 51°16.238 2°54.217 6.411267 3.100595 31.615406  
2002-12-23 08:25:18 51°16.238 2°54.225 6.279862 3.099227 31.601607  
2002-12-23 08:26:18 51°16.306 2°54.207 5.299893 3.096805 31.58084  
2002-12-23 08:27:18 51°16.4 2°53.967 5.275713 3.10049 31.611763  
2002-12-23 08:28:18 51°16.538 2°53.698 5.403425 3.111649 31.714663  
2002-12-23 08:29:18 51°16.69 2°53.448 5.33713 3.122598 31.811819  
2002-12-23 08:30:18 51°16.841 2°53.201 5.376563 3.136811 31.943189  
2002-12-23 08:31:18 51°16.981 2°52.964 5.441708 3.162712 32.183729  
2002-12-23 08:32:18 51°17.133 2°52.724 5.477553 3.180506 32.34591  
2002-12-23 08:33:22 51°17.302 2°52.483 5.514684 3.185454 32.373303  
2002-12-23 08:34:22 51°17.454 2°52.242 5.591445 3.196299 32.440309  
2002-12-23 08:35:22 51°17.606 2°52.003 5.757063 3.214094 32.545984  
2002-12-23 08:36:22 51°17.756 2°51.766 5.759217 3.23052 32.64341  
2002-12-23 08:37:22 51°17.909 2°51.531 5.825171 3.237575 32.687366  
2002-12-23 08:38:22 51°18.07 2°51.309 5.819114 3.242208 32.708348  
2002-12-23 08:39:22 51°18.229 2°51.093 5.826122 3.243787 32.703514  
2002-12-23 08:40:22 51°18.349 2°50.991 5.914152 3.243787 32.694359  
2002-12-23 08:41:22 51°18.438 2°50.971 5.832528 3.243787 32.694359  
2002-12-23 08:42:22 51°18.476 2°50.958 5.827523 3.242734 32.685925  
2002-12-23 08:43:22 51°18.486 2°50.959 5.824871 3.241892 32.673189  
2002-12-23 08:44:22 51°18.493 2°50.965 5.822868 3.240944 32.665099  
2002-12-23 08:45:22 51°18.5 2°50.971 5.816361 3.240417 32.664206  
2002-12-23 08:46:22 51°18.507 2°50.977 5.816161 3.240207 32.664348  
2002-12-23 08:47:22 51°18.507 2°50.973 5.812957 3.239154 32.654247  
2002-12-23 08:48:22 51°18.505 2°50.966 5.893406 3.238627 32.65086  
2002-12-23 08:49:22 51°18.501 2°50.955 5.812406 3.238417 32.648507  
2002-12-23 08:50:22 51°18.495 2°50.945 5.814809 3.238838 32.652381  
2002-12-23 08:51:22 51°18.489 2°50.932 5.809853 3.237785 32.641449  
2002-12-23 08:52:22 51°18.483 2°50.919 5.814609 3.23789 32.641794  
2002-12-23 08:53:23 51°18.474 2°50.904 5.809052 3.237995 32.643801  
2002-12-23 08:54:22 51°18.466 2°50.889 5.806749 3.237048 32.634876  
2002-12-23 08:55:22 51°18.459 2°50.876 5.8079 3.237048 32.634876  
2002-12-23 08:56:22 51°18.452 2°50.865 5.808501 3.236521 32.628995  
2002-12-23 08:57:22 51°18.444 2°50.855 5.808952 3.23768 32.642766  
2002-12-23 08:58:22 51°18.436 2°50.847 5.847891 3.236837 32.634185  
2002-12-23 08:59:22 51°18.426 2°50.841 5.84719 3.237258 32.638891  
2002-12-23 09:00:22 51°18.418 2°50.908 5.843688 3.236837 32.636678  
2002-12-23 09:01:22 51°18.487 2°51.173 5.795182 3.235363 32.621869  
2002-12-23 09:02:23 51°18.557 2°51.49 5.776752 3.229466 32.566778  
2002-12-23 09:03:22 51°18.619 2°51.805 5.751451 3.221674 32.50043  
2002-12-23 09:04:22 51°18.681 2°52.127 5.728145 3.212092 32.415674  
2002-12-23 09:05:22 51°18.745 2°52.446 5.785266 3.2063 32.37324  
2002-12-23 09:06:23 51°18.808 2°52.773 5.772143 3.20093 32.333  
2002-12-23 09:07:22 51°18.872 2°53.088 5.707789 3.197666 32.311342  
2002-12-23 09:08:22 51°18.933 2°53.41 5.693947 3.194297 32.291794  
2002-12-23 09:09:22 51°18.997 2°53.733 5.645678 3.191244 32.269163  
2002-12-23 09:10:22 51°19.065 2°54.053 5.671323 3.19177 32.282491  
2002-12-23 09:11:22 51°19.13 2°54.372 5.597925 3.18977 32.288176  
2002-12-23 09:12:22 51°19.185 2°54.696 5.629915 3.185769 32.261507  
2002-12-23 09:13:22 51°19.247 2°55.019 5.655516 3.182294 32.232458  
2002-12-23 09:14:22 51°19.312 2°55.338 5.555112 3.177977 32.19973  
2002-12-23 09:15:22 51°19.374 2°55.658 5.488725 3.172818 32.159178  
2002-12-23 09:16:22 51°19.439 2°55.976 5.483894 3.151971 31.984446  
2002-12-23 09:17:22 51°19.505 2°56.294 5.451376 3.14776 31.947827  
2002-12-23 09:18:22 51°19.572 2°56.609 5.403072 3.135968 31.849809  
2002-12-23 09:19:23 51°19.639 2°56.93 5.324216 3.117123 31.699317  
2002-12-23 09:20:22 51°19.709 2°57.236 5.258292 3.097121 31.537031  
2002-12-23 09:21:22 51°19.774 2°57.551 5.25713 3.081014 31.406038  
2002-12-23 09:22:23 51°19.839 2°57.868 5.167976 3.068382 31.302597  
2002-12-23 09:23:22 51°19.904 2°58.171 5.139494 3.056065 31.200934  
2002-12-23 09:24:22 51°19.978 2°58.472 5.092824 3.043328 31.089509  
2002-12-23 09:25:22 51°20.053 2°58.769 5.096672 3.028802 30.958536  
2002-12-23 09:26:22 51°20.13 2°59.062 5.173842 3.029118 30.945996  
2002-12-23 09:27:23 51°20.205 2°59.361 5.0949 3.031012 30.959336  
2002-12-23 09:28:22 51°20.279 2°59.648 5.059243 3.021013 30.88262  
2002-12-23 09:29:23 51°20.357 2°59.944 5.042825 3.01554 30.848107  
2002-12-23 09:30:23 51°20.437 3°0.232 5.043281 3.008593 30.778418  
2002-12-23 09:31:22 51°20.514 3°0.515 5.054379 3.00133 30.690744  
2002-12-23 09:32:23 51°20.591 3°0.812 5.08619 3.00154 30.692322  
2002-12-23 09:33:22 51°20.671 3°1.094 5.121276 2.996593 30.614903  
2002-12-23 09:34:22 51°20.745 3°1.388 5.064309 2.997645 30.629972  
2002-12-23 09:35:22 51°20.823 3°1.677 5.085177 2.997224 30.62203  
2002-12-23 09:36:22 51°20.901 3°1.964 5.093786 2.996172 30.597402  
2002-12-23 09:37:23 51°20.982 3°2.259 5.086849 2.997961 30.614401  
2002-12-23 09:38:23 51°21.06 3°2.552 5.081328 3.001014 30.658413  
2002-12-23 09:39:22 51°21.135 3°2.841 5.118846 3.002803 30.681803  
2002-12-23 09:40:22 51°21.21 3°3.134 5.139596 3.001119 30.658004  
2002-12-23 09:41:22 51°21.287 3°3.425 5.0949 2.993751 30.562935  
2002-12-23 09:42:23 51°21.363 3°3.728 5.091659 2.999329 30.62904  
2002-12-23 09:43:23 51°21.443 3°4.024 5.13327 3.008592 30.735956  
2002-12-23 09:44:22 51°21.494 3°4.328 5.096369 3.021539 30.874097  
2002-12-23 09:45:22 51°21.543 3°4.633 5.093027 3.027118 30.942733  
2002-12-23 09:46:22 51°21.591 3°4.945 5.095457 3.027539 30.949906  
2002-12-23 09:47:22 51°21.638 3°5.257 5.097027 3.026907 30.940355  
2002-12-23 09:48:22 51°21.692 3°5.572 5.10128 3.026065 30.927623  
2002-12-23 09:49:22 51°21.742 3°5.894 5.102748 3.02596 30.92241  
2002-12-23 09:50:22 51°21.795 3°6.215 5.103913 3.026697 30.929122  
2002-12-23 09:51:22 51°21.841 3°6.539 5.105786 3.025434 30.913249  
2002-12-23 09:52:22 51°21.887 3°6.861 5.108267 3.021118 30.858904  
2002-12-23 09:53:22 51°21.933 3°7.182 5.151485 3.016486 30.805833  
2002-12-23 09:54:23 51°21.976 3°7.506 5.111152 3.013013 30.770642  
2002-12-23 09:55:22 51°22.019 3°7.821 5.15442 3.013223 30.771416  
2002-12-23 09:56:22 51°22.069 3°8.143 5.194776 3.01375 30.776554  
2002-12-23 09:57:22 51°22.116 3°8.468 5.115252 3.012486 30.760702  
2002-12-23 09:58:22 51°22.163 3°8.79 5.116417 3.005329 30.680762  
2002-12-23 09:59:22 51°22.209 3°9.116 5.123958 2.984593 30.443851  
2002-12-23 10:00:22 51°22.255 3°9.44 5.128716 2.974805 30.327291  
2002-12-23 10:01:23 51°22.305 3°9.77 5.138229 2.969121 30.255447  
2002-12-23 10:02:22 51°22.344 3°10.093 5.139039 2.967858 30.23652  
2002-12-23 10:03:22 51°22.388 3°10.424 5.141923 2.964911 30.201015  
2002-12-23 10:04:23 51°22.432 3°10.764 5.142885 2.963332 30.17777  
2002-12-23 10:05:22 51°22.461 3°11.097 5.145212 2.96449 30.195495  
2002-12-23 10:06:22 51°22.493 3°11.43 5.146021 2.958385 30.125285  
2002-12-23 10:07:23 51°22.524 3°11.769 5.153003 2.955228 30.085099  
2002-12-23 10:08:22 51°22.557 3°12.098 5.16747 2.953228 30.054818  
2002-12-23 10:09:23 51°22.589 3°12.437 5.173033 2.952175 30.029735  
2002-12-23 10:10:22 51°22.618 3°12.756 5.169898 2.948387 29.988748  
2002-12-23 10:11:22 51°22.65 3°12.963 5.173691 2.946282 29.964337  
2002-12-23 10:12:23 51°22.64 3°13.094 5.170707 2.948597 29.990333  
2002-12-23 10:13:22 51°22.616 3°13.168 5.21181 2.945861 29.961944  
2002-12-23 10:14:22 51°22.608 3°13.17 5.188658 2.942703 29.919507  
2002-12-23 10:15:22 51°22.606 3°13.163 5.16226 2.947124 29.969122  
2002-12-23 10:16:22 51°22.609 3°13.159 5.188962 2.94765 29.976585  
2002-12-23 10:17:22 51°22.617 3°13.155 5.201196 2.942387 29.901994  
2002-12-23 10:18:22 51°22.63 3°13.152 5.184209 2.943019 29.90675  
2002-12-23 10:19:26 51°22.642 3°13.15 5.170656 2.941861 29.909282  
2002-12-23 10:20:26 51°22.652 3°13.151 5.210648 2.945124 29.955228  
2002-12-23 10:21:27 51°22.661 3°13.154 5.173539 2.943756 29.936758  
2002-12-23 10:22:26 51°22.666 3°13.159 5.176472 2.944282 29.940334  
2002-12-23 10:23:26 51°22.672 3°13.164 5.184866 2.944282 29.938002  
2002-12-23 10:24:27 51°22.736 3°13.258 5.289445 2.943335 29.914948  
2002-12-23 10:25:27 51°22.89 3°13.431 5.177231 2.951754 30.002421  
2002-12-23 10:26:27 51°23.043 3°13.659 5.207565 2.959438 30.109737  
2002-12-23 10:27:26 51°23.196 3°13.89 5.165396 2.955228 30.065573  
2002-12-23 10:28:26 51°23.357 3°14.128 5.161603 2.954912 30.065149  
2002-12-23 10:29:26 51°23.519 3°14.361 5.162715 2.949965 30.01037  
2002-12-23 10:30:27 51°23.686 3°14.593 5.203622 2.940598 29.902094  
2002-12-23 10:31:28 51°23.85 3°14.826 5.170302 2.919971 29.670682  
2002-12-23 10:32:28 51°24.015 3°15.052 5.171314 2.918287 29.646415  
2002-12-23 10:33:26 51°24.174 3°15.269 5.177686 2.916603 29.626002  
2002-12-23 10:34:26 51°24.342 3°15.5 5.212518 2.912604 29.578112  
2002-12-23 10:35:27 51°24.512 3°15.743 5.161046 2.91955 29.669043  
2002-12-23 10:36:28 51°24.684 3°15.993 5.159883 2.934494 29.836688  
2002-12-23 10:37:26 51°24.849 3°16.233 5.204178 2.932389 29.815391  
2002-12-23 10:38:28 51°25.013 3°16.499 5.267079 2.93502 29.836396  
2002-12-23 10:39:26 51°25.169 3°16.741 5.194017 2.972488 30.244608  
2002-12-23 10:40:27 51°25.328 3°16.997 5.241673 2.976909 30.286423  
2002-12-23 10:41:27 51°25.485 3°17.247 5.205846 2.984382 30.36646  
2002-12-23 10:42:27 51°25.637 3°17.5 5.211255 2.993329 30.459911  
2002-12-23 10:43:26 51°25.742 3°17.679 5.221463 2.998591 30.514325  
2002-12-23 10:44:26 51°25.819 3°17.776 5.251877 2.988697 30.392887  
2002-12-23 10:45:28 51°25.87 3°17.874 5.311046 3.040169 30.940459  
2002-12-23 10:46:28 51°25.892 3°17.912 5.273189 3.054591 31.091463  
2002-12-23 10:47:26 51°25.891 3°17.93 5.27435 3.059117 31.137565  
2002-12-23 10:48:26 51°25.89 3°17.948 5.289344 3.061328 31.140683  
2002-12-23 10:49:26 51°25.89 3°17.966 5.28475 3.062275 31.154561  
2002-12-23 10:50:42 51°25.889 3°17.987 5.329008 3.062275 31.156172  
2002-12-23 10:51:42 51°25.888 3°18.004 5.327142 3.062275 31.164233  
2002-12-23 10:52:42 51°25.932 3°18.023 5.28162 3.063117 31.16887  
2002-12-23 10:53:42 51°25.938 3°17.813 5.301609 3.068907 31.237247  
2002-12-23 10:54:40 51°25.901 3°17.496 5.305596 3.081014 31.357308  
2002-12-23 10:55:42 51°25.847 3°17.151 5.300297 3.086593 31.420113  
2002-12-23 10:56:42 51°25.839 3°16.807 5.33486 3.085435 31.411951  
2002-12-23 10:57:42 51°25.777 3°16.476 5.29212 3.086383 31.429121  
2002-12-23 10:58:42 51°25.699 3°16.155 5.289849 3.088804 31.456392  
2002-12-23 10:59:42 51°25.69 3°15.808 5.285205 3.091962 31.496855  
2002-12-23 11:00:42 51°25.639 3°15.468 5.27541 3.097016 31.557062  
2002-12-23 11:01:42 51°25.624 3°15.12 5.35216 3.100595 31.607222  
2002-12-23 11:02:50 51°25.586 3°14.727 5.266321 3.10628 31.674615  
2002-12-23 11:03:50 51°25.569 3°14.377 5.293231 3.108281 31.702105  
2002-12-23 11:04:50 51°25.536 3°14.024 5.2541 3.104175 31.67793  
2002-12-23 11:05:50 51°25.509 3°13.67 5.213984 3.093332 31.594029  
2002-12-23 11:06:50 51°25.485 3°13.313 5.140557 3.082173 31.501511  
2002-12-23 11:07:50 51°25.456 3°12.958 5.112721 3.072172 31.417878  
2002-12-23 11:08:50 51°25.41 3°12.604 5.099103 3.064488 31.351372  
2002-12-23 11:09:50 51°25.365 3°12.247 5.095103 3.059119 31.301239  
2002-12-23 11:10:51 51°25.321 3°11.882 5.09328 3.057014 31.28068  
2002-12-23 11:11:50 51°25.277 3°11.531 5.088368 3.056172 31.272782  
2002-12-23 11:12:51 51°25.23 3°11.168 5.085532 3.055856 31.274094  
2002-12-23 11:13:50 51°25.183 3°10.821 5.128513 3.056277 31.279673  
2002-12-23 11:14:50 51°25.132 3°10.472 5.091204 3.05754 31.291522  
2002-12-23 11:15:50 51°25.085 3°10.125 5.094596 3.060382 31.31716  
2002-12-23 11:16:50 51°25.044 3°9.778 5.132866 3.064067 31.358032  
2002-12-23 11:17:50 51°24.987 3°9.437 5.084772 3.066067 31.388019  
2002-12-23 11:18:50 51°24.945 3°9.088 5.078593 3.065751 31.389347  
2002-12-23 11:19:51 51°24.896 3°8.729 5.076871 3.066804 31.404536  
2002-12-23 11:20:50 51°24.919 3°8.382 5.077378 3.067225 31.407668  
2002-12-23 11:21:50 51°24.971 3°8.038 5.113886 3.06733 31.414587  
2002-12-23 11:22:51 51°25.071 3°7.728 5.108621 3.065857 31.401987  
2002-12-23 11:23:51 51°25.179 3°7.432 5.083304 3.066804 31.414354  
2002-12-23 11:24:51 51°25.358 3°7.266 5.160743 3.074068 31.47286  
2002-12-23 11:25:51 51°25.559 3°7.312 5.15528 3.084279 31.553179  
2002-12-23 11:26:51 51°25.731 3°7.493 5.183653 3.091542 31.608259  
2002-12-23 11:27:50 51°25.895 3°7.683 5.221211 3.098701 31.661264  
2002-12-23 11:28:50 51°26.067 3°7.864 5.265917 3.107755 31.72574  
2002-12-23 11:29:50 51°26.237 3°8.049 5.320734 3.118809 31.807745  
2002-12-23 11:30:50 51°26.382 3°8.232 5.35927 3.130284 31.891051  
2002-12-23 11:31:50 51°26.446 3°8.32 5.386543 3.138812 31.952532  
2002-12-23 11:32:50 51°26.438 3°8.346 5.40015 3.144497 31.991818  
2002-12-23 11:33:51 51°26.421 3°8.34 5.435413 3.145129 31.998106  
2002-12-23 11:34:50 51°26.405 3°8.341 5.391129 3.145023 31.998571  
2002-12-23 11:35:50 51°26.39 3°8.344 5.395715 3.144392 31.991458  
2002-12-23 11:36:50 51°26.398 3°8.363 5.408615 3.146497 31.999489  
2002-12-23 11:37:51 51°26.441 3°8.288 5.417583 3.14755 32.015467  
2002-12-23 11:38:50 51°26.484 3°8.085 5.466932 3.150498 32.032966  
2002-12-23 11:39:50 51°26.557 3°7.858 5.479264 3.152077 32.042483  
2002-12-23 11:40:50 51°26.645 3°7.641 5.452081 3.154499 32.059822  
2002-12-23 11:41:50 51°26.732 3°7.419 5.468795 3.157341 32.075283  
2002-12-23 11:42:50 51°26.819 3°7.198 5.60998 3.159236 32.086686  
2002-12-23 11:43:50 51°26.904 3°6.973 5.509755 3.163448 32.109255  
2002-12-23 11:44:51 51°26.992 3°6.746 5.530326 3.167449 32.134388  
2002-12-23 11:45:51 51°27.08 3°6.523 5.555162 3.170923 32.151938  
2002-12-23 11:46:51 51°27.166 3°6.297 5.571949 3.174608 32.173486  
2002-12-23 11:47:51 51°27.251 3°6.07 5.578934 3.177556 32.192528  
2002-12-23 11:48:51 51°27.339 3°5.843 5.583004 3.17882 32.201747  
2002-12-23 11:49:51 51°27.426 3°5.615 5.598076 3.180188 32.211318  
2002-12-23 11:50:51 51°27.514 3°5.384 5.655666 3.183347 32.229396  
2002-12-23 11:51:51 51°27.603 3°5.153 5.620024 3.185979 32.250645  
2002-12-23 11:52:51 51°27.691 3°4.922 5.615002 3.1844 32.23129  
2002-12-23 11:53:51 51°27.779 3°4.691 5.631572 3.184926 32.235539  
2002-12-23 11:54:51 51°27.867 3°4.462 5.681708 3.189349 32.27023  
2002-12-23 11:55:51 51°27.955 3°4.237 5.677594 3.191876 32.291107  
2002-12-23 11:56:51 51°28.041 3°4.02 5.900655 3.191033 32.291588  
2002-12-23 11:57:51 51°28.123 3°3.798 5.533946 3.183031 32.235766  
2002-12-23 11:58:51 51°28.206 3°3.62 5.523637 3.172818 32.181478  
2002-12-23 11:59:51 51°28.245 3°3.501 5.502813 3.167975 32.151867  
2002-12-23 12:00:51 51°28.264 3°3.437 5.491341 3.169765 32.168672  
2002-12-23 12:01:51 51°28.272 3°3.405 5.497933 3.165343 32.133856  
2002-12-23 12:02:51 51°28.275 3°3.378 5.507994 3.168396 32.150814  
2002-12-23 12:03:51 51°28.276 3°3.352 5.51056 3.169765 32.166192  
2002-12-23 12:04:51 51°28.287 3°3.328 5.509151 3.171239 32.177792  
2002-12-23 12:05:51 51°28.308 3°3.308 5.512924 3.171239 32.180273  
2002-12-23 12:06:51 51°28.335 3°3.292 5.553453 3.172187 32.190092  
2002-12-23 12:07:51 51°28.366 3°3.28 5.556922 3.173345 32.199795  
2002-12-23 12:08:51 51°28.425 3°3.218 5.573608 3.17324 32.19944  
2002-12-23 12:09:51 51°28.398 3°2.918 5.507139 3.17345 32.194361  
2002-12-23 12:10:51 51°28.325 3°2.545 5.495367 3.17166 32.19245  
2002-12-23 12:11:51 51°28.256 3°2.165 5.488071 3.170186 32.185813  
2002-12-23 12:12:51 51°28.19 3°1.783 5.493958 3.170185 32.067102  
2002-12-23 12:13:51 51°28.122 3°1.403 5.492197 3.169239 32.178471  
2002-12-23 12:14:51 51°28.054 3°1.023 5.521726 3.170397 32.185697  
2002-12-23 12:15:51 51°27.985 3°0.648 5.652806 3.185769 32.287987  
2002-12-23 12:16:51 51°27.92 3°0.275 5.670721 3.201036 32.378844  
2002-12-23 12:17:51 51°27.857 2°59.902 5.744184 3.202405 32.382582  
2002-12-23 12:18:51 51°27.788 2°59.53 5.726691 3.206722 32.392835  
2002-12-23 12:19:51 51°27.72 2°59.156 5.803094 3.212408 32.425822  
2002-12-23 12:20:51 51°27.653 2°58.782 5.856246 3.217883 32.448143  
2002-12-23 12:21:51 51°27.586 2°58.41 5.895606 3.225254 32.489928  
2002-12-23 12:22:51 51°27.519 2°58.037 5.909303 3.231782 32.520596  
2002-12-23 12:23:51 51°27.453 2°57.659 5.82457 3.228307 32.500027  
2002-12-23 12:24:51 51°27.386 2°57.281 5.777954 3.22241 32.468942  
2002-12-23 12:25:51 51°27.32 2°56.901 5.764178 3.213776 32.418796  
2002-12-23 12:26:51 51°27.254 2°56.522 5.758065 3.209249 32.383068  
2002-12-23 12:27:51 51°27.188 2°56.141 5.831027 3.210407 32.374544  
2002-12-23 12:28:51 51°27.124 2°55.757 5.784165 3.203562 32.3187  
2002-12-23 12:29:51 51°27.06 2°55.376 5.783614 3.204826 32.299866  
2002-12-23 12:30:51 51°26.994 2°54.998 5.760971 3.203036 32.288934  
2002-12-23 12:31:51 51°26.933 2°54.62 5.7761 3.197245 32.246474  
2002-12-23 12:32:51 51°26.872 2°54.245 5.761522 3.193138 32.221977  
2002-12-23 12:33:51 51°26.811 2°53.871 5.703627 3.189769 32.196653  
2002-12-23 12:34:51 51°26.755 2°53.495 5.657824 3.183767 32.157496  
2002-12-23 12:35:51 51°26.701 2°53.122 5.687226 3.176818 32.112615  
2002-12-23 12:36:51 51°26.647 2°52.75 5.607519 3.175239 32.102332  
2002-12-23 12:37:51 51°26.594 2°52.381 5.661839 3.169132 32.070916  
2002-12-23 12:38:51 51°26.542 2°52.013 5.618818 3.170817 32.071713  
2002-12-23 12:39:50 51°26.489 2°51.653 5.681708 3.169132 32.05367  
2002-12-23 12:40:51 51°26.436 2°51.283 5.794732 3.174818 32.080377  
2002-12-23 12:41:50 51°26.385 2°50.927 5.874203 3.180292 32.10551  
2002-12-23 12:42:50 51°26.327 2°50.573 7.009445 3.281799 32.717378  
2002-12-23 12:43:50 51°26.27 2°50.216 7.109587 3.410393 33.400933  
2002-12-23 12:44:50 51°26.213 2°49.859 7.128174 3.425982 33.485093  
2002-12-23 12:45:50 51°26.157 2°49.503 7.104142 3.426088 33.485417  
2002-12-23 12:46:50 51°26.102 2°49.146 7.065819 3.421137 33.458701  
2002-12-23 12:47:50 51°26.06 2°48.871 7.069549 3.418398 33.440423  
2002-12-23 12:48:51 51°26.03 2°48.702 7.060861 3.416186 33.430316  
2002-12-23 12:49:50 51°26.023 2°48.586 7.071708 3.41882 33.443362  
2002-12-23 12:50:51 51°26.026 2°48.547 7.077401 3.417977 33.439942  
2002-12-23 12:51:51 51°26.025 2°48.547 7.101591 3.421558 33.456724  
2002-12-23 12:52:51 51°26.027 2°48.545 7.107379 3.425982 33.47936  
2002-12-23 12:53:50 51°26.032 2°48.541 7.104976 3.42377 33.462723  
2002-12-23 12:54:50 51°26.037 2°48.538 7.120279 3.421874 33.452785  
2002-12-23 12:55:50 51°26.057 2°48.515 7.11665 3.420084 33.443168  
2002-12-23 12:56:51 51°25.992 2°48.307 7.110371 3.417977 33.42766  
2002-12-23 12:57:50 51°25.786 2°48.189 7.174154 3.420505 33.446924  
2002-12-23 12:58:51 51°25.573 2°48.044 7.128714 3.42988 33.496262  
2002-12-23 12:59:51 51°25.376 2°47.871 6.694497 3.427457 33.487173  
2002-12-23 13:00:57 51°25.167 2°47.671 6.179051 3.284116 32.705204  
2002-12-23 13:01:57 51°24.977 2°47.493 6.146939 3.277797 32.663311  
2002-12-23 13:02:57 51°24.793 2°47.302 6.213236 3.259896 32.558006  
2002-12-23 13:03:57 51°24.645 2°47.04 6.242232 3.273164 32.637533  
2002-12-23 13:04:57 51°24.499 2°46.774 6.242033 3.278429 32.673572  
2002-12-23 13:05:57 51°24.354 2°46.51 6.310566 3.278851 32.673304  
2002-12-23 13:06:57 51°24.207 2°46.251 6.481301 3.302966 32.81137  
2002-12-23 13:07:57 51°24.06 2°45.992 6.44612 3.318026 32.904113  
2002-12-23 13:08:57 51°23.928 2°45.711 6.481351 3.315288 32.885482  
2002-12-23 13:09:57 51°23.798 2°45.43 6.522601 3.322133 32.927119  
2002-12-23 13:10:57 51°23.667 2°45.152 6.634285 3.328663 32.959484  
2002-12-23 13:11:57 51°23.534 2°44.874 6.659582 3.343302 33.046299  
2002-12-23 13:12:57 51°23.4 2°44.599 6.706592 3.355203 33.117636  
2002-12-23 13:13:57 51°23.268 2°44.323 6.736942 3.361838 33.159911  
2002-12-23 13:14:55 51°23.138 2°44.06 6.793557 3.369421 33.198541  
2002-12-23 13:15:55 51°23.003 2°43.786 6.808787 3.378269 33.259942  
2002-12-23 13:16:57 51°22.866 2°43.504 6.851402 3.379638 33.265046  
2002-12-23 13:17:55 51°22.738 2°43.242 6.817953 3.380481 33.269323  
2002-12-23 13:18:57 51°22.592 2°42.978 6.827019 3.381639 33.272944  
2002-12-23 13:19:57 51°22.448 2°42.726 6.911114 3.389539 33.324692  
2002-12-23 13:20:55 51°22.312 2°42.482 6.934334 3.400282 33.38601  
2002-12-23 13:21:57 51°22.168 2°42.215 6.941072 3.402599 33.398122  
2002-12-23 13:22:57 51°22.027 2°41.96 6.94535 3.404601 33.412535  
2002-12-23 13:23:57 51°21.886 2°41.705 6.95071 3.407445 33.436124  
2002-12-23 13:24:57 51°21.746 2°41.448 6.948104 3.408709 33.461411  
2002-12-23 13:25:57 51°21.605 2°41.195 6.873117 3.405865 33.462513  
2002-12-23 13:26:57 51°21.479 2°40.927 6.874791 3.401547 33.457419  
2002-12-23 13:27:57 51°21.435 2°40.598 6.804499 3.399546 33.460313  
2002-12-23 13:28:57 51°21.4 2°40.263 6.764467 3.395965 33.459158  
2002-12-23 13:29:56 51°21.352 2°39.94 6.761162 3.394385 33.462543  
2002-12-23 13:30:56 51°21.301 2°39.613 6.763973 3.394806 33.469636  
2002-12-23 13:31:56 51°21.249 2°39.286 6.793705 3.394174 33.470166  
2002-12-23 13:32:57 51°21.198 2°38.953 6.769645 3.395544 33.477706  
2002-12-23 13:33:57 51°21.146 2°38.628 6.79957 3.39607 33.48347  
2002-12-23 13:34:57 51°21.093 2°38.303 6.736152 3.393964 33.477794  
2002-12-23 13:35:56 51°21.042 2°37.983 6.752975 3.393648 33.482616  
2002-12-23 13:36:57 51°20.99 2°37.654 6.767475 3.396597 33.493375  
2002-12-23 13:37:57 51°20.939 2°37.331 6.781626 3.399125 33.507795  
2002-12-23 13:38:57 51°20.887 2°37.008 6.789662 3.400705 33.51846  
2002-12-23 13:39:55 51°20.837 2°36.697 6.794888 3.40239 33.528617  
2002-12-23 13:40:57 51°20.784 2°36.365 6.801493 3.405866 33.555045  
2002-12-23 13:41:57 51°20.733 2°36.048 6.888673 3.406919 33.56491  
2002-12-23 13:42:55 51°20.683 2°35.741 6.823077 3.408921 33.577682  
2002-12-23 13:43:57 51°20.639 2°35.406 6.837217 3.411554 33.592387  
2002-12-23 13:44:55 51°20.599 2°35.091 6.85086 3.413661 33.602156  
2002-12-23 13:45:57 51°20.558 2°34.751 6.869868 3.41503 33.603862  
2002-12-23 13:46:56 51°20.518 2°34.426 6.889461 3.417874 33.615051  
2002-12-23 13:47:57 51°20.477 2°34.088 6.950268 3.420718 33.627886  
2002-12-23 13:48:57 51°20.438 2°33.753 6.964969 3.423878 33.644161  
2002-12-23 13:49:57 51°20.396 2°33.417 6.94599 3.425984 33.65059  
2002-12-23 13:50:55 51°20.357 2°33.094 7.01367 3.431146 33.672942  
2002-12-23 13:51:57 51°20.314 2°32.75 7.111549 3.443259 33.713905  
2002-12-23 13:52:56 51°20.275 2°32.423 7.22152 3.453582 33.756745  
2002-12-23 13:53:56 51°20.23 2°32.092 7.756663 3.47012 33.817376  
2002-12-23 13:54:57 51°20.181 2°31.761 8.123724 3.564194 34.144428  
2002-12-23 13:55:56 51°20.135 2°31.44 8.215054 3.588953 34.255784  
2002-12-23 13:56:56 51°20.091 2°31.118 8.333883 3.603388 34.310685  
2002-12-23 13:57:57 51°20.059 2°30.791 8.356882 3.612976 34.343297  
2002-12-23 13:58:56 51°20.041 2°30.479 8.4092 3.621194 34.368646  
2002-12-23 13:59:56 51°20.034 2°30.274 8.457729 3.627516 34.385252  
2002-12-23 14:00:56 51°20.05 2°30.152 8.503918 3.633627 34.404457  
2002-12-23 14:01:56 51°20.059 2°30.042 8.564413 3.640054 34.421316  
2002-12-23 14:02:56 51°20.066 2°29.997 8.594711 3.645533 34.431403  
2002-12-23 14:03:56 51°20.086 2°30.001 8.620827 3.649748 34.447515  
2002-12-23 14:04:57 51°20.102 2°30.021 8.622743 3.652172 34.447217  
2002-12-23 14:05:56 51°20.116 2°30.055 8.628636 3.653225 34.450235  
2002-12-23 14:06:57 51°20.124 2°30.084 8.681165 3.652909 34.450939  
2002-12-23 14:07:57 51°20.117 2°30.1 8.647651 3.654595 34.455767  
2002-12-23 14:08:56 51°20 2°30.105 8.693704 3.655333 34.452251  
2002-12-23 14:09:56 51°19.832 2°30.349 8.634911 3.655754 34.45587  
2002-12-23 14:10:56 51°19.68 2°30.655 8.605303 3.651434 34.448322  
2002-12-23 14:11:57 51°19.52 2°30.949 8.443222 3.637947 34.419297  
2002-12-23 14:12:56 51°19.369 2°31.232 8.457489 3.630993 34.391226  
2002-12-23 14:13:56 51°19.218 2°31.518 8.489661 3.632784 34.385891  
2002-12-23 14:14:56 51°19.064 2°31.795 8.477611 3.633311 34.37612  
2002-12-23 14:15:54 51°18.92 2°32.066 8.472425 3.632784 34.362515  
2002-12-23 14:16:56 51°18.767 2°32.356 8.220212 3.622247 34.332907  
2002-12-23 14:17:56 51°18.615 2°32.635 8.047009 3.588426 34.233146  
2002-12-23 14:18:56 51°18.466 2°32.919 7.986461 3.574414 34.184933  
2002-12-23 14:19:57 51°18.311 2°33.204 7.952148 3.56746 34.165392  
2002-12-23 14:20:56 51°18.16 2°33.483 7.985735 3.567144 34.16528  
2002-12-23 14:21:57 51°18.006 2°33.775 7.942901 3.56883 34.175099  
2002-12-23 14:22:56 51°17.854 2°34.056 8.040531 3.565775 34.171036  
2002-12-23 14:23:55 51°17.704 2°34.34 8.309335 3.580209 34.209178  
2002-12-23 14:24:57 51°17.566 2°34.665 8.682122 3.623722 34.308154  
2002-12-23 14:25:56 51°17.431 2°34.98 8.78122 3.655753 34.381276  
2002-12-23 14:26:56 51°17.291 2°35.298 8.805159 3.661865 34.403631  
2002-12-23 14:28:00 51°17.139 2°35.637 8.721933 3.660074 34.402489  
2002-12-23 14:29:00 51°16.997 2°35.952 8.543839 3.654173 34.398357  
2002-12-23 14:29:58 51°16.866 2°36.256 8.275483 3.632152 34.371168  
2002-12-23 14:31:00 51°16.782 2°36.547 7.933459 3.594432 34.297705  
2002-12-23 14:31:59 51°16.721 2°36.667 7.868975 3.567777 34.245427  
2002-12-23 14:33:00 51°16.663 2°36.72 7.801806 3.560087 34.230343  
2002-12-23 14:34:01 51°16.618 2°36.737 7.91864 3.559771 34.227782  
2002-12-23 14:35:00 51°16.614 2°36.755 7.858649 3.563458 34.241005  
2002-12-23 14:35:59 51°16.621 2°36.776 7.867521 3.565249 34.246231  
2002-12-23 14:36:59 51°16.63 2°36.801 7.871011 3.566197 34.250633  
2002-12-23 14:38:00 51°16.641 2°36.828 7.912343 3.566092 34.249507  
2002-12-23 14:39:00 51°16.654 2°36.855 7.875276 3.566619 34.251862  
2002-12-23 14:39:59 51°16.668 2°36.882 7.876197 3.567145 34.255034  
2002-12-23 14:41:00 51°16.653 2°36.908 8.024141 3.566724 34.249715  
2002-12-23 14:41:59 51°16.517 2°37.032 7.924984 3.573677 34.261806  
2002-12-23 14:43:00 51°16.324 2°37.2 7.519948 3.551448 34.219031  
2002-12-23 14:44:00 51°16.128 2°37.356 7.395744 3.517525 34.107849  
2002-12-23 14:45:00 51°15.931 2°37.516 7.349386 3.504884 34.058916  
2002-12-23 14:45:59 51°15.732 2°37.67 7.352709 3.500565 34.050247  
2002-12-23 14:47:00 51°15.523 2°37.825 7.199335 3.495192 34.040099  
2002-12-23 14:48:00 51°15.318 2°37.981 7.006006 3.479918 34.024574  
2002-12-23 14:49:00 51°15.112 2°38.136 6.933842 3.46338 33.994457  
2002-12-23 14:50:00 51°14.908 2°38.301 7.011557 3.458324 33.985207  
2002-12-23 14:51:00 51°14.708 2°38.468 7.078874 3.463064 33.998522  
2002-12-23 14:52:00 51°14.506 2°38.626 7.254514 3.481604 34.050375  
2002-12-23 14:53:00 51°14.305 2°38.787 7.106251 3.496984 34.100115  
2002-12-23 14:54:00 51°14.104 2°38.949 6.738175 3.469491 34.081179  
2002-12-23 14:55:00 51°13.902 2°39.118 6.541311 3.43452 33.984495  
2002-12-23 14:56:00 51°13.711 2°39.315 6.368604 3.407555 33.874745  
2002-12-23 14:57:00 51°13.521 2°39.518 6.431993 3.394073 33.824655  
2002-12-23 14:58:00 51°13.329 2°39.716 6.441312 3.400393 33.850561  
2002-12-23 14:59:00 51°13.14 2°39.919 6.516462 3.408398 33.896726  
2002-12-23 15:00:00 51°12.954 2°40.125 6.58915 3.417035 33.9143  
2002-12-23 15:01:00 51°12.764 2°40.316 6.821648 3.428199 33.943649  
2002-12-23 15:01:59 51°12.588 2°40.529 6.862088 3.452742 34.012903  
2002-12-23 15:03:00 51°12.405 2°40.752 6.604034 3.438838 33.994049  
2002-12-23 15:04:00 51°12.226 2°40.968 6.442254 3.41872 33.9295  
2002-12-23 15:05:00 51°12.021 2°41.095 6.522354 3.401657 33.865379  
2002-12-23 15:05:58 51°11.82 2°41.206 6.622621 3.399023 33.771318  
2002-12-23 15:07:00 51°11.604 2°41.349 6.785521 3.411345 33.738291  
2002-12-23 15:08:00 51°11.399 2°41.478 6.744983 3.426828 33.786114  
2002-12-23 15:09:00 51°11.214 2°41.598 6.529581 3.421773 33.812601  
2002-12-23 15:10:00 51°11.113 2°41.782 6.395296 3.399971 33.802843  
2002-12-23 15:11:00 51°11.11 2°41.975 6.399215 3.389754 33.773497  
2002-12-23 15:12:00 51°11.135 2°42.074 6.37436 3.387648 33.759485  
2002-12-23 15:12:58 51°11.134 2°42.086 6.379222 3.389017 33.764497  
2002-12-23 15:14:01 51°11.139 2°42.104 6.399711 3.390597 33.773526  
2002-12-23 15:15:01 51°11.149 2°42.123 6.39232 3.393019 33.786801  
2002-12-23 15:15:59 51°11.161 2°42.143 6.384283 3.391018 33.780719  
2002-12-23 15:17:01 51°11.196 2°42.179 6.386665 3.390281 33.775943  
2002-12-23 15:18:01 51°11.313 2°42.444 6.444831 3.390808 33.772478  
2002-12-23 15:19:00 51°11.396 2°42.813 6.510917 3.399339 33.793337  
2002-12-23 15:20:01 51°11.441 2°43.215 6.522205 3.405132 33.808382  
2002-12-23 15:20:59 51°11.481 2°43.596 8.087793 3.405026 33.813115  
2002-12-23 15:22:01 51°11.528 2°44.004 7.592963 3.402288 33.785445  
2002-12-23 15:23:01 51°11.575 2°44.397 7.651354 3.395758 33.789211  
2002-12-23 15:24:01 51°11.625 2°44.788 7.56477 3.388807 33.784137  
2002-12-23 15:25:01 51°11.681 2°45.177 7.857631 3.376589 33.736771  
2002-12-23 15:26:01 51°11.742 2°45.564 7.476558 3.368058 33.69291  
2002-12-23 15:27:01 51°11.811 2°45.946 7.14406 3.353102 33.603785  
2002-12-23 15:28:01 51°11.886 2°46.323 7.389151 3.33267 33.480444  
2002-12-23 15:29:01 51°11.96 2°46.704 7.651645 3.323508 33.419746  
2002-12-23 15:30:01 51°12.039 2°47.084 7.397697 3.316662 33.358598  
2002-12-23 15:31:01 51°12.117 2°47.466 7.464803 3.301391 33.23122  
2002-12-23 15:32:01 51°12.218 2°47.832 7.138716 3.285911 33.117267  
2002-12-23 15:32:59 51°12.334 2°48.174 6.861941 3.274537 33.038057  
2002-12-23 15:34:01 51°12.456 2°48.542 7.608977 3.271273 33.009945  
2002-12-23 15:35:01 51°12.574 2°48.898 6.880108 3.266955 32.980962  
2002-12-23 15:36:01 51°12.694 2°49.253 7.163422 3.263585 32.949968  
2002-12-23 15:37:01 51°12.811 2°49.61 7.401945 3.256319 32.892966  
2002-12-23 15:38:01 51°12.928 2°49.969 6.801 3.256003 32.897818  
2002-12-23 15:39:01 51°13.047 2°50.325 7.642988 3.257689 32.928445  
2002-12-23 15:40:01 51°13.165 2°50.682 6.83165 3.257899 32.924085  
2002-12-23 15:40:59 51°13.279 2°51.024 6.992543 3.256214 32.92537  
2002-12-23 15:42:01 51°13.403 2°51.389 7.497233 3.255688 32.931238  
2002-12-23 15:43:01 51°13.527 2°51.739 6.922774 3.255056 32.928359  
2002-12-23 15:44:01 51°13.651 2°52.088 7.056835 3.250949 32.895758  
2002-12-23 15:45:01 51°13.777 2°52.438 7.052761 3.244315 32.838149  
2002-12-23 15:46:01 51°13.901 2°52.79 6.55111 3.238629 32.789461  
2002-12-23 15:47:01 51°14.025 2°53.141 7.151903 3.235996 32.764117  
2002-12-23 15:48:01 51°14.153 2°53.487 6.834507 3.228625 32.710718  
2002-12-23 15:49:01 51°14.277 2°53.829 6.467181 3.218411 32.6178  
2002-12-23 15:50:01 51°14.39 2°54.172 6.7975 3.20746 32.539899  
2002-12-23 15:51:01 51°14.449 2°54.519 6.310814 3.19851 32.455997  
2002-12-23 15:52:01 51°14.418 2°54.861 6.726037 3.193456 32.415013  
2002-12-23 15:52:59 51°14.324 2°55.133 6.567189 3.169133 32.116178  
2002-12-23 15:54:01 51°14.186 2°55.367 6.57273 3.063537 31.024363  
2002-12-23 15:55:00 51°14.046 2°55.475 -999 0.050005 0.384398  
2002-12-23 15:56:01 51°13.929 2°55.553 -999 0.99485 7.436717